sensor_id;sensor_type;location;lat;lon;timestamp;P1;durP1;ratioP1;P2;durP2;ratioP2
7667;SDS011;3876;42.204;24.686;2023-12-20T00:02:04;0.60;;;0.60;;
7667;SDS011;3876;42.204;24.686;2023-12-20T00:04:31;1.30;;;1.30;;
7667;SDS011;3876;42.204;24.686;2023-12-20T00:06:58;1.13;;;1.13;;
7667;SDS011;3876;42.204;24.686;2023-12-20T00:09:24;0.80;;;0.80;;
7667;SDS011;3876;42.204;24.686;2023-12-20T00:11:51;0.73;;;0.73;;
7667;SDS011;3876;42.204;24.686;2023-12-20T00:14:19;0.60;;;0.60;;
7667;SDS011;3876;42.204;24.686;2023-12-20T00:16:46;0.60;;;0.60;;
7667;SDS011;3876;42.204;24.686;2023-12-20T00:19:13;1.13;;;1.03;;
7667;SDS011;3876;42.204;24.686;2023-12-20T00:21:40;1.20;;;1.20;;
7667;SDS011;3876;42.204;24.686;2023-12-20T00:24:07;1.20;;;1.20;;
7667;SDS011;3876;42.204;24.686;2023-12-20T00:26:34;0.90;;;0.90;;
7667;SDS011;3876;42.204;24.686;2023-12-20T00:29:00;1.03;;;1.03;;
7667;SDS011;3876;42.204;24.686;2023-12-20T00:31:29;0.60;;;0.60;;
7667;SDS011;3876;42.204;24.686;2023-12-20T00:33:55;0.50;;;0.50;;
7667;SDS011;3876;42.204;24.686;2023-12-20T00:36:22;0.53;;;0.53;;
7667;SDS011;3876;42.204;24.686;2023-12-20T00:38:49;1.70;;;0.73;;
7667;SDS011;3876;42.204;24.686;2023-12-20T00:41:16;0.87;;;0.87;;
7667;SDS011;3876;42.204;24.686;2023-12-20T00:43:43;0.90;;;0.90;;
7667;SDS011;3876;42.204;24.686;2023-12-20T00:46:10;1.23;;;1.13;;
7667;SDS011;3876;42.204;24.686;2023-12-20T00:48:38;0.70;;;0.70;;
7667;SDS011;3876;42.204;24.686;2023-12-20T00:51:07;1.50;;;1.20;;
7667;SDS011;3876;42.204;24.686;2023-12-20T00:53:34;1.20;;;1.20;;
7667;SDS011;3876;42.204;24.686;2023-12-20T00:56:00;0.67;;;0.67;;
7667;SDS011;3876;42.204;24.686;2023-12-20T00:58:27;0.77;;;0.77;;
7667;SDS011;3876;42.204;24.686;2023-12-20T01:00:54;1.60;;;1.60;;
7667;SDS011;3876;42.204;24.686;2023-12-20T01:03:20;1.07;;;1.07;;
7667;SDS011;3876;42.204;24.686;2023-12-20T01:05:49;0.83;;;0.83;;
7667;SDS011;3876;42.204;24.686;2023-12-20T01:08:15;1.03;;;1.03;;
7667;SDS011;3876;42.204;24.686;2023-12-20T01:10:42;1.27;;;1.17;;
7667;SDS011;3876;42.204;24.686;2023-12-20T01:13:09;1.07;;;0.93;;
7667;SDS011;3876;42.204;24.686;2023-12-20T01:15:35;1.37;;;1.37;;
7667;SDS011;3876;42.204;24.686;2023-12-20T01:18:02;1.27;;;1.27;;
7667;SDS011;3876;42.204;24.686;2023-12-20T01:20:29;1.77;;;1.77;;
7667;SDS011;3876;42.204;24.686;2023-12-20T01:22:57;1.30;;;1.30;;
7667;SDS011;3876;42.204;24.686;2023-12-20T01:25:24;0.77;;;0.77;;
7667;SDS011;3876;42.204;24.686;2023-12-20T01:27:51;1.40;;;1.40;;
7667;SDS011;3876;42.204;24.686;2023-12-20T01:30:18;0.70;;;0.70;;
7667;SDS011;3876;42.204;24.686;2023-12-20T01:32:44;0.90;;;0.90;;
7667;SDS011;3876;42.204;24.686;2023-12-20T01:35:11;1.53;;;1.43;;
7667;SDS011;3876;42.204;24.686;2023-12-20T01:37:38;0.73;;;0.73;;
7667;SDS011;3876;42.204;24.686;2023-12-20T01:40:07;0.50;;;0.50;;
7667;SDS011;3876;42.204;24.686;2023-12-20T01:42:34;1.17;;;1.17;;
7667;SDS011;3876;42.204;24.686;2023-12-20T01:45:01;0.87;;;0.87;;
7667;SDS011;3876;42.204;24.686;2023-12-20T01:47:28;0.57;;;0.57;;
7667;SDS011;3876;42.204;24.686;2023-12-20T01:49:55;0.60;;;0.60;;
7667;SDS011;3876;42.204;24.686;2023-12-20T01:52:23;0.60;;;0.60;;
7667;SDS011;3876;42.204;24.686;2023-12-20T01:54:51;1.40;;;1.40;;
7667;SDS011;3876;42.204;24.686;2023-12-20T01:57:21;0.50;;;0.50;;
7667;SDS011;3876;42.204;24.686;2023-12-20T01:59:48;1.10;;;1.03;;
7667;SDS011;3876;42.204;24.686;2023-12-20T02:02:14;0.60;;;0.60;;
7667;SDS011;3876;42.204;24.686;2023-12-20T02:04:41;0.80;;;0.80;;
7667;SDS011;3876;42.204;24.686;2023-12-20T02:07:08;0.83;;;0.83;;
7667;SDS011;3876;42.204;24.686;2023-12-20T02:09:36;0.50;;;0.50;;
7667;SDS011;3876;42.204;24.686;2023-12-20T02:12:03;0.80;;;0.80;;
7667;SDS011;3876;42.204;24.686;2023-12-20T02:14:31;0.80;;;0.80;;
7667;SDS011;3876;42.204;24.686;2023-12-20T02:16:58;0.53;;;0.53;;
7667;SDS011;3876;42.204;24.686;2023-12-20T02:19:25;0.60;;;0.60;;
7667;SDS011;3876;42.204;24.686;2023-12-20T02:22:05;0.80;;;0.80;;
7667;SDS011;3876;42.204;24.686;2023-12-20T02:24:33;0.50;;;0.50;;
7667;SDS011;3876;42.204;24.686;2023-12-20T02:27:00;0.53;;;0.53;;
7667;SDS011;3876;42.204;24.686;2023-12-20T02:29:26;1.17;;;1.17;;
7667;SDS011;3876;42.204;24.686;2023-12-20T02:31:53;0.60;;;0.60;;
7667;SDS011;3876;42.204;24.686;2023-12-20T02:34:20;0.60;;;0.60;;
7667;SDS011;3876;42.204;24.686;2023-12-20T02:36:46;0.73;;;0.73;;
7667;SDS011;3876;42.204;24.686;2023-12-20T02:39:15;0.67;;;0.67;;
7667;SDS011;3876;42.204;24.686;2023-12-20T02:41:42;0.93;;;0.93;;
7667;SDS011;3876;42.204;24.686;2023-12-20T02:44:09;0.70;;;0.70;;
7667;SDS011;3876;42.204;24.686;2023-12-20T02:46:35;0.87;;;0.87;;
7667;SDS011;3876;42.204;24.686;2023-12-20T02:49:02;0.60;;;0.60;;
7667;SDS011;3876;42.204;24.686;2023-12-20T02:51:29;0.70;;;0.70;;
7667;SDS011;3876;42.204;24.686;2023-12-20T02:53:56;1.00;;;1.00;;
7667;SDS011;3876;42.204;24.686;2023-12-20T02:56:24;2.73;;;0.73;;
7667;SDS011;3876;42.204;24.686;2023-12-20T02:58:53;1.03;;;1.03;;
7667;SDS011;3876;42.204;24.686;2023-12-20T03:01:19;0.70;;;0.70;;
7667;SDS011;3876;42.204;24.686;2023-12-20T03:03:46;0.70;;;0.70;;
7667;SDS011;3876;42.204;24.686;2023-12-20T03:06:15;0.63;;;0.63;;
7667;SDS011;3876;42.204;24.686;2023-12-20T03:08:43;0.63;;;0.63;;
7667;SDS011;3876;42.204;24.686;2023-12-20T03:11:09;1.40;;;0.83;;
7667;SDS011;3876;42.204;24.686;2023-12-20T03:13:37;1.00;;;1.00;;
7667;SDS011;3876;42.204;24.686;2023-12-20T03:16:07;0.80;;;0.80;;
7667;SDS011;3876;42.204;24.686;2023-12-20T03:18:34;0.60;;;0.60;;
7667;SDS011;3876;42.204;24.686;2023-12-20T03:21:01;0.80;;;0.80;;
7667;SDS011;3876;42.204;24.686;2023-12-20T03:23:29;0.83;;;0.83;;
7667;SDS011;3876;42.204;24.686;2023-12-20T03:25:57;0.70;;;0.70;;
7667;SDS011;3876;42.204;24.686;2023-12-20T03:28:24;0.93;;;0.93;;
7667;SDS011;3876;42.204;24.686;2023-12-20T03:30:52;0.73;;;0.73;;
7667;SDS011;3876;42.204;24.686;2023-12-20T03:33:19;10.40;;;1.33;;
7667;SDS011;3876;42.204;24.686;2023-12-20T03:35:46;0.90;;;0.90;;
7667;SDS011;3876;42.204;24.686;2023-12-20T03:38:12;0.73;;;0.73;;
7667;SDS011;3876;42.204;24.686;2023-12-20T03:40:39;0.50;;;0.50;;
7667;SDS011;3876;42.204;24.686;2023-12-20T03:43:06;0.50;;;0.50;;
7667;SDS011;3876;42.204;24.686;2023-12-20T03:45:33;1.00;;;1.00;;
7667;SDS011;3876;42.204;24.686;2023-12-20T03:48:01;1.17;;;1.10;;
7667;SDS011;3876;42.204;24.686;2023-12-20T03:50:28;0.70;;;0.70;;
7667;SDS011;3876;42.204;24.686;2023-12-20T03:52:55;0.60;;;0.60;;
7667;SDS011;3876;42.204;24.686;2023-12-20T03:55:21;1.20;;;1.20;;
7667;SDS011;3876;42.204;24.686;2023-12-20T03:57:48;1.30;;;1.30;;
7667;SDS011;3876;42.204;24.686;2023-12-20T04:00:15;1.00;;;1.00;;
7667;SDS011;3876;42.204;24.686;2023-12-20T04:02:42;0.90;;;0.90;;
7667;SDS011;3876;42.204;24.686;2023-12-20T04:05:10;0.73;;;0.73;;
7667;SDS011;3876;42.204;24.686;2023-12-20T04:07:37;0.70;;;0.70;;
7667;SDS011;3876;42.204;24.686;2023-12-20T04:10:04;0.77;;;0.77;;
7667;SDS011;3876;42.204;24.686;2023-12-20T04:12:32;0.90;;;0.90;;
7667;SDS011;3876;42.204;24.686;2023-12-20T04:14:59;0.97;;;0.97;;
7667;SDS011;3876;42.204;24.686;2023-12-20T04:17:26;0.70;;;0.70;;
7667;SDS011;3876;42.204;24.686;2023-12-20T04:19:52;0.80;;;0.80;;
7667;SDS011;3876;42.204;24.686;2023-12-20T04:22:20;2.33;;;1.00;;
7667;SDS011;3876;42.204;24.686;2023-12-20T04:24:47;0.80;;;0.80;;
7667;SDS011;3876;42.204;24.686;2023-12-20T04:27:14;0.83;;;0.83;;
7667;SDS011;3876;42.204;24.686;2023-12-20T04:29:41;0.77;;;0.77;;
7667;SDS011;3876;42.204;24.686;2023-12-20T04:32:07;1.10;;;1.10;;
7667;SDS011;3876;42.204;24.686;2023-12-20T04:34:35;0.60;;;0.60;;
7667;SDS011;3876;42.204;24.686;2023-12-20T04:37:02;0.60;;;0.60;;
7667;SDS011;3876;42.204;24.686;2023-12-20T04:39:31;0.70;;;0.70;;
7667;SDS011;3876;42.204;24.686;2023-12-20T04:41:58;0.90;;;0.90;;
7667;SDS011;3876;42.204;24.686;2023-12-20T04:44:25;1.37;;;1.37;;
7667;SDS011;3876;42.204;24.686;2023-12-20T04:46:51;0.83;;;0.83;;
7667;SDS011;3876;42.204;24.686;2023-12-20T04:49:18;1.10;;;1.10;;
7667;SDS011;3876;42.204;24.686;2023-12-20T04:51:45;0.70;;;0.70;;
7667;SDS011;3876;42.204;24.686;2023-12-20T04:54:11;1.20;;;1.20;;
7667;SDS011;3876;42.204;24.686;2023-12-20T04:56:40;0.83;;;0.83;;
7667;SDS011;3876;42.204;24.686;2023-12-20T04:59:07;0.60;;;0.60;;
7667;SDS011;3876;42.204;24.686;2023-12-20T05:01:34;0.70;;;0.70;;
7667;SDS011;3876;42.204;24.686;2023-12-20T05:04:00;0.70;;;0.70;;
7667;SDS011;3876;42.204;24.686;2023-12-20T05:06:27;0.60;;;0.60;;
7667;SDS011;3876;42.204;24.686;2023-12-20T05:08:54;0.83;;;0.83;;
7667;SDS011;3876;42.204;24.686;2023-12-20T05:11:20;0.87;;;0.87;;
7667;SDS011;3876;42.204;24.686;2023-12-20T05:13:48;0.97;;;0.97;;
7667;SDS011;3876;42.204;24.686;2023-12-20T05:16:15;0.97;;;0.97;;
7667;SDS011;3876;42.204;24.686;2023-12-20T05:18:43;0.50;;;0.50;;
7667;SDS011;3876;42.204;24.686;2023-12-20T05:21:09;0.90;;;0.90;;
7667;SDS011;3876;42.204;24.686;2023-12-20T05:23:36;1.00;;;1.00;;
7667;SDS011;3876;42.204;24.686;2023-12-20T05:26:03;0.60;;;0.60;;
7667;SDS011;3876;42.204;24.686;2023-12-20T05:28:30;1.10;;;1.10;;
7667;SDS011;3876;42.204;24.686;2023-12-20T05:30:58;0.77;;;0.77;;
7667;SDS011;3876;42.204;24.686;2023-12-20T05:33:24;0.73;;;0.73;;
7667;SDS011;3876;42.204;24.686;2023-12-20T05:35:51;0.70;;;0.70;;
7667;SDS011;3876;42.204;24.686;2023-12-20T05:38:18;0.80;;;0.80;;
7667;SDS011;3876;42.204;24.686;2023-12-20T05:40:44;0.87;;;0.87;;
7667;SDS011;3876;42.204;24.686;2023-12-20T05:43:11;0.80;;;0.80;;
7667;SDS011;3876;42.204;24.686;2023-12-20T05:45:38;0.77;;;0.77;;
7667;SDS011;3876;42.204;24.686;2023-12-20T05:48:06;1.23;;;1.23;;
7667;SDS011;3876;42.204;24.686;2023-12-20T05:50:33;0.90;;;0.90;;
7667;SDS011;3876;42.204;24.686;2023-12-20T05:53:01;1.10;;;1.10;;
7667;SDS011;3876;42.204;24.686;2023-12-20T05:55:28;0.90;;;0.90;;
7667;SDS011;3876;42.204;24.686;2023-12-20T05:57:55;1.13;;;1.13;;
7667;SDS011;3876;42.204;24.686;2023-12-20T06:00:22;0.70;;;0.70;;
7667;SDS011;3876;42.204;24.686;2023-12-20T06:02:48;1.47;;;1.47;;
7667;SDS011;3876;42.204;24.686;2023-12-20T06:05:16;0.63;;;0.63;;
7667;SDS011;3876;42.204;24.686;2023-12-20T06:07:43;1.00;;;1.00;;
7667;SDS011;3876;42.204;24.686;2023-12-20T06:10:10;0.70;;;0.70;;
7667;SDS011;3876;42.204;24.686;2023-12-20T06:12:37;0.87;;;0.87;;
7667;SDS011;3876;42.204;24.686;2023-12-20T06:15:03;1.07;;;1.07;;
7667;SDS011;3876;42.204;24.686;2023-12-20T06:17:31;0.60;;;0.60;;
7667;SDS011;3876;42.204;24.686;2023-12-20T06:19:57;0.70;;;0.70;;
7667;SDS011;3876;42.204;24.686;2023-12-20T06:22:25;1.33;;;1.33;;
7667;SDS011;3876;42.204;24.686;2023-12-20T06:24:52;0.77;;;0.77;;
7667;SDS011;3876;42.204;24.686;2023-12-20T06:27:19;1.20;;;1.20;;
7667;SDS011;3876;42.204;24.686;2023-12-20T06:29:45;0.80;;;0.80;;
7667;SDS011;3876;42.204;24.686;2023-12-20T06:32:12;1.10;;;1.10;;
7667;SDS011;3876;42.204;24.686;2023-12-20T06:34:39;0.57;;;0.57;;
7667;SDS011;3876;42.204;24.686;2023-12-20T06:37:06;2.03;;;2.03;;
7667;SDS011;3876;42.204;24.686;2023-12-20T06:39:34;1.17;;;1.17;;
7667;SDS011;3876;42.204;24.686;2023-12-20T06:42:01;0.80;;;0.80;;
7667;SDS011;3876;42.204;24.686;2023-12-20T06:44:29;1.13;;;1.07;;
7667;SDS011;3876;42.204;24.686;2023-12-20T06:46:56;0.60;;;0.60;;
7667;SDS011;3876;42.204;24.686;2023-12-20T06:49:23;0.80;;;0.80;;
7667;SDS011;3876;42.204;24.686;2023-12-20T06:51:50;0.90;;;0.90;;
7667;SDS011;3876;42.204;24.686;2023-12-20T06:54:16;1.33;;;1.33;;
7667;SDS011;3876;42.204;24.686;2023-12-20T06:56:44;2.07;;;2.07;;
7667;SDS011;3876;42.204;24.686;2023-12-20T06:59:11;0.70;;;0.70;;
7667;SDS011;3876;42.204;24.686;2023-12-20T07:01:38;1.07;;;1.07;;
7667;SDS011;3876;42.204;24.686;2023-12-20T07:04:05;0.97;;;0.97;;
7667;SDS011;3876;42.204;24.686;2023-12-20T07:06:31;0.80;;;0.80;;
7667;SDS011;3876;42.204;24.686;2023-12-20T07:08:58;0.60;;;0.60;;
7667;SDS011;3876;42.204;24.686;2023-12-20T07:11:25;0.60;;;0.60;;
7667;SDS011;3876;42.204;24.686;2023-12-20T07:13:53;1.03;;;1.03;;
7667;SDS011;3876;42.204;24.686;2023-12-20T07:16:19;2.13;;;2.03;;
7667;SDS011;3876;42.204;24.686;2023-12-20T07:18:47;2.23;;;1.53;;
7667;SDS011;3876;42.204;24.686;2023-12-20T07:21:14;0.90;;;0.90;;
7667;SDS011;3876;42.204;24.686;2023-12-20T07:23:41;0.57;;;0.57;;
7667;SDS011;3876;42.204;24.686;2023-12-20T07:26:07;1.07;;;1.07;;
7667;SDS011;3876;42.204;24.686;2023-12-20T07:28:35;2.73;;;0.97;;
7667;SDS011;3876;42.204;24.686;2023-12-20T07:31:03;2.03;;;1.10;;
7667;SDS011;3876;42.204;24.686;2023-12-20T07:33:30;0.90;;;0.90;;
7667;SDS011;3876;42.204;24.686;2023-12-20T07:35:56;1.73;;;1.63;;
7667;SDS011;3876;42.204;24.686;2023-12-20T07:38:23;1.40;;;0.83;;
7667;SDS011;3876;42.204;24.686;2023-12-20T07:40:50;0.60;;;0.60;;
7667;SDS011;3876;42.204;24.686;2023-12-20T07:43:17;1.70;;;1.70;;
7667;SDS011;3876;42.204;24.686;2023-12-20T07:45:43;1.27;;;1.27;;
7667;SDS011;3876;42.204;24.686;2023-12-20T07:48:12;1.00;;;1.00;;
7667;SDS011;3876;42.204;24.686;2023-12-20T07:50:39;1.03;;;1.03;;
7667;SDS011;3876;42.204;24.686;2023-12-20T07:53:05;0.80;;;0.80;;
7667;SDS011;3876;42.204;24.686;2023-12-20T07:55:32;0.80;;;0.80;;
7667;SDS011;3876;42.204;24.686;2023-12-20T07:57:59;1.23;;;1.23;;
7667;SDS011;3876;42.204;24.686;2023-12-20T08:00:26;0.60;;;0.60;;
7667;SDS011;3876;42.204;24.686;2023-12-20T08:02:53;1.03;;;1.03;;
7667;SDS011;3876;42.204;24.686;2023-12-20T08:05:21;1.23;;;1.23;;
7667;SDS011;3876;42.204;24.686;2023-12-20T08:07:48;0.70;;;0.70;;
7667;SDS011;3876;42.204;24.686;2023-12-20T08:10:15;0.93;;;0.93;;
7667;SDS011;3876;42.204;24.686;2023-12-20T08:12:44;1.20;;;1.20;;
7667;SDS011;3876;42.204;24.686;2023-12-20T08:15:11;0.97;;;0.97;;
7667;SDS011;3876;42.204;24.686;2023-12-20T08:17:37;0.70;;;0.70;;
7667;SDS011;3876;42.204;24.686;2023-12-20T08:20:04;1.43;;;1.43;;
7667;SDS011;3876;42.204;24.686;2023-12-20T08:22:33;0.70;;;0.70;;
7667;SDS011;3876;42.204;24.686;2023-12-20T08:25:00;1.37;;;1.37;;
7667;SDS011;3876;42.204;24.686;2023-12-20T08:27:27;0.50;;;0.50;;
7667;SDS011;3876;42.204;24.686;2023-12-20T08:29:53;0.70;;;0.70;;
7667;SDS011;3876;42.204;24.686;2023-12-20T08:32:20;0.80;;;0.80;;
7667;SDS011;3876;42.204;24.686;2023-12-20T08:34:47;0.80;;;0.80;;
7667;SDS011;3876;42.204;24.686;2023-12-20T08:37:13;0.80;;;0.80;;
7667;SDS011;3876;42.204;24.686;2023-12-20T08:39:41;4.53;;;0.83;;
7667;SDS011;3876;42.204;24.686;2023-12-20T08:42:09;0.60;;;0.60;;
7667;SDS011;3876;42.204;24.686;2023-12-20T08:44:35;0.73;;;0.73;;
7667;SDS011;3876;42.204;24.686;2023-12-20T08:47:02;0.60;;;0.60;;
7667;SDS011;3876;42.204;24.686;2023-12-20T08:49:29;0.70;;;0.70;;
7667;SDS011;3876;42.204;24.686;2023-12-20T08:51:56;1.50;;;1.50;;
7667;SDS011;3876;42.204;24.686;2023-12-20T08:54:23;1.13;;;1.13;;
7667;SDS011;3876;42.204;24.686;2023-12-20T08:56:51;1.00;;;1.00;;
7667;SDS011;3876;42.204;24.686;2023-12-20T08:59:17;1.00;;;1.00;;
7667;SDS011;3876;42.204;24.686;2023-12-20T09:01:44;1.67;;;1.57;;
7667;SDS011;3876;42.204;24.686;2023-12-20T09:04:13;1.27;;;1.27;;
7667;SDS011;3876;42.204;24.686;2023-12-20T09:06:39;1.03;;;1.03;;
7667;SDS011;3876;42.204;24.686;2023-12-20T09:09:06;6.17;;;1.83;;
7667;SDS011;3876;42.204;24.686;2023-12-20T09:11:35;2.13;;;2.00;;
7667;SDS011;3876;42.204;24.686;2023-12-20T09:14:03;0.87;;;0.87;;
7667;SDS011;3876;42.204;24.686;2023-12-20T09:16:30;1.60;;;1.50;;
7667;SDS011;3876;42.204;24.686;2023-12-20T09:18:57;2.87;;;2.13;;
7667;SDS011;3876;42.204;24.686;2023-12-20T09:21:24;1.43;;;1.33;;
7667;SDS011;3876;42.204;24.686;2023-12-20T09:23:51;3.90;;;1.60;;
7667;SDS011;3876;42.204;24.686;2023-12-20T09:26:18;1.50;;;1.47;;
7667;SDS011;3876;42.204;24.686;2023-12-20T09:28:46;2.23;;;2.07;;
7667;SDS011;3876;42.204;24.686;2023-12-20T09:31:14;1.37;;;1.37;;
7667;SDS011;3876;42.204;24.686;2023-12-20T09:33:41;1.97;;;1.73;;
7667;SDS011;3876;42.204;24.686;2023-12-20T09:36:08;2.43;;;2.23;;
7667;SDS011;3876;42.204;24.686;2023-12-20T09:38:34;7.60;;;1.97;;
7667;SDS011;3876;42.204;24.686;2023-12-20T09:41:01;3.73;;;2.63;;
7667;SDS011;3876;42.204;24.686;2023-12-20T09:43:29;2.37;;;2.17;;
7667;SDS011;3876;42.204;24.686;2023-12-20T09:45:58;1.97;;;1.87;;
7667;SDS011;3876;42.204;24.686;2023-12-20T09:48:29;2.03;;;1.93;;
7667;SDS011;3876;42.204;24.686;2023-12-20T09:50:57;1.60;;;1.50;;
7667;SDS011;3876;42.204;24.686;2023-12-20T09:53:24;1.83;;;1.73;;
7667;SDS011;3876;42.204;24.686;2023-12-20T09:55:55;1.83;;;1.83;;
7667;SDS011;3876;42.204;24.686;2023-12-20T09:58:24;2.67;;;2.47;;
7667;SDS011;3876;42.204;24.686;2023-12-20T10:00:50;2.00;;;1.53;;
7667;SDS011;3876;42.204;24.686;2023-12-20T10:03:22;3.90;;;2.77;;
7667;SDS011;3876;42.204;24.686;2023-12-20T10:05:53;2.00;;;1.93;;
7667;SDS011;3876;42.204;24.686;2023-12-20T10:08:22;3.10;;;2.03;;
7667;SDS011;3876;42.204;24.686;2023-12-20T10:10:51;1.40;;;1.40;;
7667;SDS011;3876;42.204;24.686;2023-12-20T10:13:18;1.83;;;1.83;;
7667;SDS011;3876;42.204;24.686;2023-12-20T10:15:44;4.77;;;2.60;;
7667;SDS011;3876;42.204;24.686;2023-12-20T10:18:11;2.67;;;1.93;;
7667;SDS011;3876;42.204;24.686;2023-12-20T10:20:39;2.03;;;1.87;;
7667;SDS011;3876;42.204;24.686;2023-12-20T10:23:08;1.50;;;1.50;;
7667;SDS011;3876;42.204;24.686;2023-12-20T10:25:35;2.50;;;2.30;;
7667;SDS011;3876;42.204;24.686;2023-12-20T10:28:08;4.63;;;1.93;;
7667;SDS011;3876;42.204;24.686;2023-12-20T10:30:36;1.80;;;1.70;;
7667;SDS011;3876;42.204;24.686;2023-12-20T10:33:04;1.60;;;1.50;;
7667;SDS011;3876;42.204;24.686;2023-12-20T10:35:32;1.47;;;1.37;;
7667;SDS011;3876;42.204;24.686;2023-12-20T10:37:59;3.50;;;2.00;;
7667;SDS011;3876;42.204;24.686;2023-12-20T10:40:31;1.17;;;1.17;;
7667;SDS011;3876;42.204;24.686;2023-12-20T10:43:02;1.70;;;1.60;;
7667;SDS011;3876;42.204;24.686;2023-12-20T10:45:29;4.77;;;2.60;;
7667;SDS011;3876;42.204;24.686;2023-12-20T10:47:56;3.93;;;3.50;;
7667;SDS011;3876;42.204;24.686;2023-12-20T10:50:26;3.13;;;2.83;;
7667;SDS011;3876;42.204;24.686;2023-12-20T10:52:53;2.67;;;2.57;;
7667;SDS011;3876;42.204;24.686;2023-12-20T10:55:21;1.87;;;1.77;;
7667;SDS011;3876;42.204;24.686;2023-12-20T10:57:50;2.03;;;1.67;;
7667;SDS011;3876;42.204;24.686;2023-12-20T11:00:18;2.83;;;2.43;;
7667;SDS011;3876;42.204;24.686;2023-12-20T11:02:45;3.67;;;2.60;;
7667;SDS011;3876;42.204;24.686;2023-12-20T11:05:14;2.10;;;2.00;;
7667;SDS011;3876;42.204;24.686;2023-12-20T11:07:52;2.30;;;2.10;;
7667;SDS011;3876;42.204;24.686;2023-12-20T11:10:23;2.27;;;2.17;;
7667;SDS011;3876;42.204;24.686;2023-12-20T11:12:57;3.07;;;2.87;;
7667;SDS011;3876;42.204;24.686;2023-12-20T11:15:34;8.33;;;2.50;;
7667;SDS011;3876;42.204;24.686;2023-12-20T11:18:02;4.57;;;3.27;;
7667;SDS011;3876;42.204;24.686;2023-12-20T11:20:35;6.47;;;2.17;;
7667;SDS011;3876;42.204;24.686;2023-12-20T11:23:04;7.93;;;2.77;;
7667;SDS011;3876;42.204;24.686;2023-12-20T11:25:34;2.60;;;2.40;;
7667;SDS011;3876;42.204;24.686;2023-12-20T11:28:14;2.40;;;1.83;;
7667;SDS011;3876;42.204;24.686;2023-12-20T11:30:46;2.60;;;2.50;;
7667;SDS011;3876;42.204;24.686;2023-12-20T11:33:14;2.90;;;2.57;;
7667;SDS011;3876;42.204;24.686;2023-12-20T11:35:41;2.73;;;2.10;;
7667;SDS011;3876;42.204;24.686;2023-12-20T11:38:08;3.50;;;3.27;;
7667;SDS011;3876;42.204;24.686;2023-12-20T11:40:35;2.83;;;2.63;;
7667;SDS011;3876;42.204;24.686;2023-12-20T11:43:03;2.20;;;2.00;;
7667;SDS011;3876;42.204;24.686;2023-12-20T11:45:31;3.20;;;2.47;;
7667;SDS011;3876;42.204;24.686;2023-12-20T11:48:00;4.87;;;3.03;;
7667;SDS011;3876;42.204;24.686;2023-12-20T11:50:28;5.10;;;2.43;;
7667;SDS011;3876;42.204;24.686;2023-12-20T11:52:56;2.97;;;2.77;;
7667;SDS011;3876;42.204;24.686;2023-12-20T11:55:24;2.60;;;2.47;;
7667;SDS011;3876;42.204;24.686;2023-12-20T11:57:51;2.57;;;2.47;;
7667;SDS011;3876;42.204;24.686;2023-12-20T12:00:18;4.17;;;3.77;;
7667;SDS011;3876;42.204;24.686;2023-12-20T12:02:56;3.57;;;3.27;;
7667;SDS011;3876;42.204;24.686;2023-12-20T12:05:24;7.30;;;4.67;;
7667;SDS011;3876;42.204;24.686;2023-12-20T12:07:51;2.67;;;2.47;;
7667;SDS011;3876;42.204;24.686;2023-12-20T12:10:18;3.23;;;2.93;;
7667;SDS011;3876;42.204;24.686;2023-12-20T12:12:47;4.67;;;3.10;;
7667;SDS011;3876;42.204;24.686;2023-12-20T12:15:14;2.60;;;2.43;;
7667;SDS011;3876;42.204;24.686;2023-12-20T12:17:41;7.17;;;2.73;;
7667;SDS011;3876;42.204;24.686;2023-12-20T12:20:09;2.77;;;2.63;;
7667;SDS011;3876;42.204;24.686;2023-12-20T12:22:37;3.50;;;3.27;;
7667;SDS011;3876;42.204;24.686;2023-12-20T12:25:10;1.63;;;1.53;;
7667;SDS011;3876;42.204;24.686;2023-12-20T12:27:39;2.43;;;2.33;;
7667;SDS011;3876;42.204;24.686;2023-12-20T12:30:07;5.07;;;3.20;;
7667;SDS011;3876;42.204;24.686;2023-12-20T12:32:35;4.07;;;2.73;;
7667;SDS011;3876;42.204;24.686;2023-12-20T12:35:03;5.43;;;2.93;;
7667;SDS011;3876;42.204;24.686;2023-12-20T12:37:33;3.30;;;3.00;;
7667;SDS011;3876;42.204;24.686;2023-12-20T12:40:00;4.30;;;2.57;;
7667;SDS011;3876;42.204;24.686;2023-12-20T12:42:27;2.23;;;2.13;;
7667;SDS011;3876;42.204;24.686;2023-12-20T12:44:54;2.63;;;2.30;;
7667;SDS011;3876;42.204;24.686;2023-12-20T12:47:21;1.87;;;1.83;;
7667;SDS011;3876;42.204;24.686;2023-12-20T12:49:49;8.37;;;2.70;;
7667;SDS011;3876;42.204;24.686;2023-12-20T12:52:18;4.70;;;2.70;;
7667;SDS011;3876;42.204;24.686;2023-12-20T12:54:46;2.03;;;1.47;;
7667;SDS011;3876;42.204;24.686;2023-12-20T12:57:13;2.87;;;2.50;;
7667;SDS011;3876;42.204;24.686;2023-12-20T12:59:41;1.70;;;1.70;;
7667;SDS011;3876;42.204;24.686;2023-12-20T13:02:07;3.50;;;3.03;;
7667;SDS011;3876;42.204;24.686;2023-12-20T13:04:34;2.20;;;2.00;;
7667;SDS011;3876;42.204;24.686;2023-12-20T13:07:01;2.60;;;2.47;;
7667;SDS011;3876;42.204;24.686;2023-12-20T13:09:27;2.33;;;2.23;;
7667;SDS011;3876;42.204;24.686;2023-12-20T13:11:55;3.40;;;3.20;;
7667;SDS011;3876;42.204;24.686;2023-12-20T13:14:23;3.30;;;3.10;;
7667;SDS011;3876;42.204;24.686;2023-12-20T13:16:50;3.90;;;3.57;;
7667;SDS011;3876;42.204;24.686;2023-12-20T13:19:17;4.07;;;3.07;;
7667;SDS011;3876;42.204;24.686;2023-12-20T13:21:44;2.57;;;2.30;;
7667;SDS011;3876;42.204;24.686;2023-12-20T13:24:10;4.60;;;2.87;;
7667;SDS011;3876;42.204;24.686;2023-12-20T13:26:37;2.93;;;2.73;;
7667;SDS011;3876;42.204;24.686;2023-12-20T13:29:06;4.07;;;2.57;;
7667;SDS011;3876;42.204;24.686;2023-12-20T13:31:33;6.83;;;3.00;;
7667;SDS011;3876;42.204;24.686;2023-12-20T13:34:01;14.80;;;3.93;;
7667;SDS011;3876;42.204;24.686;2023-12-20T13:36:28;2.90;;;2.70;;
7667;SDS011;3876;42.204;24.686;2023-12-20T13:38:55;7.83;;;4.00;;
7667;SDS011;3876;42.204;24.686;2023-12-20T13:41:21;2.93;;;2.80;;
7667;SDS011;3876;42.204;24.686;2023-12-20T13:43:48;7.50;;;4.90;;
7667;SDS011;3876;42.204;24.686;2023-12-20T13:46:18;4.87;;;2.47;;
7667;SDS011;3876;42.204;24.686;2023-12-20T13:48:45;5.27;;;3.80;;
7667;SDS011;3876;42.204;24.686;2023-12-20T13:51:12;2.77;;;2.57;;
7667;SDS011;3876;42.204;24.686;2023-12-20T13:53:39;3.40;;;3.07;;
7667;SDS011;3876;42.204;24.686;2023-12-20T13:56:06;3.40;;;3.17;;
7667;SDS011;3876;42.204;24.686;2023-12-20T13:58:33;2.23;;;2.13;;
7667;SDS011;3876;42.204;24.686;2023-12-20T14:00:59;3.03;;;2.87;;
7667;SDS011;3876;42.204;24.686;2023-12-20T14:03:27;2.23;;;2.13;;
7667;SDS011;3876;42.204;24.686;2023-12-20T14:05:56;3.70;;;3.50;;
7667;SDS011;3876;42.204;24.686;2023-12-20T14:08:22;2.83;;;2.50;;
7667;SDS011;3876;42.204;24.686;2023-12-20T14:10:50;1.70;;;1.67;;
7667;SDS011;3876;42.204;24.686;2023-12-20T14:13:17;5.33;;;2.67;;
7667;SDS011;3876;42.204;24.686;2023-12-20T14:15:44;2.97;;;2.70;;
7667;SDS011;3876;42.204;24.686;2023-12-20T14:18:12;7.93;;;3.73;;
7667;SDS011;3876;42.204;24.686;2023-12-20T14:20:41;3.67;;;3.37;;
7667;SDS011;3876;42.204;24.686;2023-12-20T14:23:09;3.90;;;2.73;;
7667;SDS011;3876;42.204;24.686;2023-12-20T14:25:36;2.57;;;2.47;;
7667;SDS011;3876;42.204;24.686;2023-12-20T14:28:03;3.73;;;3.43;;
7667;SDS011;3876;42.204;24.686;2023-12-20T14:30:30;3.07;;;2.87;;
7667;SDS011;3876;42.204;24.686;2023-12-20T14:32:57;3.63;;;3.33;;
7667;SDS011;3876;42.204;24.686;2023-12-20T14:35:25;10.00;;;3.23;;
7667;SDS011;3876;42.204;24.686;2023-12-20T14:37:53;8.13;;;3.97;;
7667;SDS011;3876;42.204;24.686;2023-12-20T14:40:20;11.90;;;5.80;;
7667;SDS011;3876;42.204;24.686;2023-12-20T14:42:47;4.17;;;3.73;;
7667;SDS011;3876;42.204;24.686;2023-12-20T14:45:14;9.73;;;3.70;;
7667;SDS011;3876;42.204;24.686;2023-12-20T14:47:41;7.13;;;4.00;;
7667;SDS011;3876;42.204;24.686;2023-12-20T14:50:08;9.03;;;5.20;;
7667;SDS011;3876;42.204;24.686;2023-12-20T14:52:35;19.07;;;5.10;;
7667;SDS011;3876;42.204;24.686;2023-12-20T14:55:04;4.67;;;3.37;;
7667;SDS011;3876;42.204;24.686;2023-12-20T14:57:31;15.47;;;5.87;;
7667;SDS011;3876;42.204;24.686;2023-12-20T14:59:58;5.77;;;5.03;;
7667;SDS011;3876;42.204;24.686;2023-12-20T15:02:25;5.20;;;4.77;;